createdAt,value
2023-02-25T00:00:20.140Z,100400.59
2023-02-25T00:02:58.989Z,100394.56
2023-02-25T00:05:26.333Z,100404.09
2023-02-25T00:08:00.025Z,100398.72
2023-02-25T00:10:27.066Z,100389.47
2023-02-25T00:13:15.979Z,100395.31
2023-02-25T00:15:44.276Z,100394.56
2023-02-25T00:18:18.018Z,100378.50
2023-02-25T00:20:44.740Z,100387.56
2023-02-25T00:23:19.012Z,100369.56
2023-02-25T00:25:55.852Z,100408.78
2023-02-25T00:28:22.749Z,100393.88
2023-02-25T00:30:58.498Z,100402.66
2023-02-25T00:33:25.767Z,100399.91
2023-02-25T00:36:02.531Z,100402.56
2023-02-25T00:38:29.693Z,100393.88
2023-02-25T00:41:06.890Z,100392.34
2023-02-25T00:43:34.471Z,100416.97
2023-02-25T00:46:16.238Z,100413.41
2023-02-25T00:48:49.036Z,100405.75
2023-02-25T00:51:19.465Z,100417.94
2023-02-25T00:53:53.056Z,100418.09
2023-02-25T00:56:27.011Z,100420.66
2023-02-25T00:58:54.127Z,100413.19
2023-02-25T01:01:37.061Z,100422.34
2023-02-25T01:04:03.994Z,100414.63
2023-02-25T01:06:33.052Z,100414.81
2023-02-25T01:09:07.099Z,100430.34
2023-02-25T01:11:36.417Z,100430.53
2023-02-25T01:14:13.033Z,100436.63
2023-02-25T01:16:47.048Z,100431.44
2023-02-25T01:19:18.411Z,100432.97
2023-02-25T01:21:55.051Z,100425.91
2023-02-25T01:24:38.083Z,100425.91
2023-02-25T01:27:10.992Z,100430.00
2023-02-25T01:29:40.575Z,100425.72
2023-02-25T01:32:22.744Z,100438.56
2023-02-25T01:34:55.994Z,100443.91
2023-02-25T01:37:22.802Z,100442.88
2023-02-25T01:39:56.019Z,100443.06
2023-02-25T01:42:24.403Z,100434.66
2023-02-25T01:45:29.039Z,100453.53
2023-02-25T01:48:02.310Z,100452.66
2023-02-25T01:50:51.013Z,100452.66
2023-02-25T01:53:23.805Z,100444.09
2023-02-25T01:56:01.021Z,100440.88
2023-02-25T01:58:28.099Z,100440.00
2023-02-25T02:01:02.151Z,100436.47
2023-02-25T02:03:34.263Z,100428.91
2023-02-25T02:06:23.410Z,100439.19
2023-02-25T02:08:50.648Z,100440.78
2023-02-25T02:11:31.054Z,100431.63
2023-02-25T02:14:06.088Z,100431.63
2023-02-25T02:16:44.718Z,100442.84
2023-02-25T02:19:41.036Z,100425.69
2023-02-25T02:22:31.036Z,100427.72
2023-02-25T02:25:13.127Z,100444.88
2023-02-25T02:28:17.306Z,100445.75
2023-02-25T02:31:15.308Z,100445.47
2023-02-25T02:34:14.059Z,100448.78
2023-02-25T02:37:13.197Z,100443.22
2023-02-25T02:40:12.073Z,100445.72
2023-02-25T02:42:48.761Z,100455.28
2023-02-25T02:45:25.106Z,100450.88
2023-02-25T02:47:58.318Z,100445.63
2023-02-25T02:50:44.110Z,100435.06
2023-02-25T02:53:20.320Z,100436.84
2023-02-25T02:56:13.000Z,100441.44
2023-02-25T02:58:53.123Z,100438.81
2023-02-25T03:01:38.150Z,100435.78
2023-02-25T03:04:18.147Z,100440.09
2023-02-25T03:06:56.058Z,100447.34
2023-02-25T03:09:31.163Z,100439.72
2023-02-25T03:12:04.201Z,100443.34
2023-02-25T03:14:34.104Z,100444.34
2023-02-25T03:17:28.061Z,100439.03
2023-02-25T03:20:17.355Z,100440.72
2023-02-25T03:22:55.026Z,100427.88
2023-02-25T03:25:28.080Z,100449.38
2023-02-25T03:27:57.246Z,100430.50
2023-02-25T03:30:36.189Z,100452.03
2023-02-25T03:33:16.210Z,100445.31
2023-02-25T03:35:53.084Z,100464.09
2023-02-25T03:38:23.831Z,100466.63
2023-02-25T03:41:17.787Z,100469.09
2023-02-25T03:43:55.179Z,100448.38
2023-02-25T03:46:30.140Z,100475.88
2023-02-25T03:49:05.706Z,100480.13
2023-02-25T03:51:49.187Z,100479.19
2023-02-25T03:54:16.854Z,100479.00
2023-02-25T03:56:54.167Z,100491.09
2023-02-25T03:59:23.861Z,100492.69
2023-02-25T04:02:03.658Z,100489.03
2023-02-25T04:04:30.472Z,100489.22
2023-02-25T04:07:04.122Z,100470.19
2023-02-25T04:09:30.799Z,100476.19
2023-02-25T04:12:04.067Z,100477.72
2023-02-25T04:14:30.909Z,100481.69
2023-02-25T04:17:04.327Z,100496.69
2023-02-25T04:19:31.221Z,100486.16
2023-02-25T04:22:07.174Z,100484.53
2023-02-25T04:24:45.612Z,100500.25
2023-02-25T04:27:15.767Z,100498.03
2023-02-25T04:29:56.121Z,100497.34
2023-02-25T04:32:29.178Z,100513.06
2023-02-25T04:35:02.163Z,100510.63
2023-02-25T04:37:29.982Z,100496.88
2023-02-25T04:40:03.214Z,100496.53
2023-02-25T04:42:30.034Z,100497.94
2023-02-25T04:45:03.171Z,100496.34
2023-02-25T04:47:29.858Z,100498.66
2023-02-25T04:50:10.201Z,100511.91
2023-02-25T04:52:43.490Z,100508.78
2023-02-25T04:55:20.183Z,100508.44
2023-02-25T04:57:47.343Z,100506.06
2023-02-25T05:00:24.249Z,100508.94
2023-02-25T05:03:13.269Z,100517.19
2023-02-25T05:05:46.177Z,100512.69
2023-02-25T05:08:12.916Z,100506.75
2023-02-25T05:10:48.231Z,100482.78
2023-02-25T05:13:15.003Z,100498.16
2023-02-25T05:15:58.265Z,100519.47
2023-02-25T05:18:31.240Z,100515.81
2023-02-25T05:21:08.565Z,100522.63
2023-02-25T05:23:35.469Z,100521.69
2023-02-25T05:26:13.618Z,100526.88
2023-02-25T05:28:47.154Z,100513.19
2023-02-25T05:31:20.379Z,100521.00
2023-02-25T05:33:54.634Z,100524.13
2023-02-25T05:36:23.976Z,100527.53
2023-02-25T05:39:05.175Z,100524.22
2023-02-25T05:41:32.910Z,100523.91
2023-02-25T05:44:06.198Z,100543.44
2023-02-25T05:46:33.033Z,100547.94
2023-02-25T05:49:10.356Z,100542.66
2023-02-25T05:51:45.375Z,100542.16
2023-02-25T05:54:19.260Z,100549.03
2023-02-25T05:56:46.110Z,100541.22
2023-02-25T05:59:19.204Z,100555.06
2023-02-25T06:01:45.928Z,100555.06
2023-02-25T06:04:19.204Z,100563.16
2023-02-25T06:06:54.998Z,100562.19
2023-02-25T06:09:28.186Z,100566.63
2023-02-25T06:11:55.198Z,100571.63
2023-02-25T06:14:21.974Z,100563.31
2023-02-25T06:16:55.226Z,100573.69
2023-02-25T06:19:29.190Z,100574.63
2023-02-25T06:22:02.246Z,100586.06
2023-02-25T06:24:28.891Z,100580.91
2023-02-25T06:27:02.171Z,100592.38
2023-02-25T06:29:28.949Z,100609.88
2023-02-25T06:32:02.373Z,100614.34
2023-02-25T06:34:32.726Z,100612.75
2023-02-25T06:36:59.639Z,100609.44
2023-02-25T06:39:33.186Z,100617.34
2023-02-25T06:42:00.218Z,100614.75
2023-02-25T06:44:37.105Z,100629.56
2023-02-25T06:47:03.870Z,100624.38
2023-02-25T06:49:38.189Z,100626.31
2023-02-25T06:52:18.253Z,100636.59
2023-02-25T06:54:52.197Z,100635.09
2023-02-25T06:57:26.210Z,100640.19
2023-02-25T07:00:02.174Z,100643.66
2023-02-25T07:02:37.959Z,100635.81
2023-02-25T07:05:12.432Z,100646.34
2023-02-25T07:07:39.170Z,100639.72
2023-02-25T07:10:13.132Z,100657.66
2023-02-25T07:12:39.709Z,100656.88
2023-02-25T07:15:13.219Z,100656.88
2023-02-25T07:17:39.863Z,100657.06
2023-02-25T07:20:14.275Z,100674.16
2023-02-25T07:22:42.281Z,100665.66
2023-02-25T07:25:21.234Z,100658.00
2023-02-25T07:27:48.031Z,100682.06
2023-02-25T07:30:15.734Z,100683.09
2023-02-25T07:32:49.183Z,100683.00
2023-02-25T07:35:16.087Z,100688.25
2023-02-25T07:37:49.159Z,100692.50
2023-02-25T07:40:17.069Z,100708.16
2023-02-25T07:42:50.320Z,100687.78
2023-02-25T07:45:17.563Z,100705.66
2023-02-25T07:47:51.139Z,100714.22
2023-02-25T07:50:24.475Z,100720.31
2023-02-25T07:52:57.262Z,100724.66
2023-02-25T07:55:24.651Z,100725.50
2023-02-25T07:57:58.252Z,100737.81
2023-02-25T08:00:31.244Z,100734.34
2023-02-25T08:02:58.675Z,100721.34
2023-02-25T08:05:32.202Z,100731.69
2023-02-25T08:07:58.900Z,100722.25
2023-02-25T08:10:32.342Z,100729.38
2023-02-25T08:12:59.062Z,100721.81
2023-02-25T08:15:32.496Z,100726.00
2023-02-25T08:17:59.295Z,100732.78
2023-02-25T08:20:32.447Z,100747.50
2023-02-25T08:22:59.244Z,100738.13
2023-02-25T08:25:34.178Z,100757.03
2023-02-25T08:28:08.156Z,100747.34
2023-02-25T08:30:42.251Z,100757.41
2023-02-25T08:33:15.207Z,100762.34
2023-02-25T08:35:41.908Z,100755.84
2023-02-25T08:38:16.252Z,100757.78
2023-02-25T08:40:43.474Z,100766.91
2023-02-25T08:43:17.224Z,100758.22
2023-02-25T08:45:44.013Z,100761.53
2023-02-25T08:48:17.313Z,100761.16
2023-02-25T08:50:52.427Z,100780.75
2023-02-25T08:53:26.237Z,100762.88
2023-02-25T08:55:54.000Z,100779.81
2023-02-25T08:58:27.184Z,100786.84
2023-02-25T09:00:53.778Z,100790.25
2023-02-25T09:03:27.316Z,100788.66
2023-02-25T09:06:06.417Z,100800.81
2023-02-25T09:08:39.259Z,100792.22
2023-02-25T09:11:07.191Z,100808.06
2023-02-25T09:13:34.075Z,100800.69
2023-02-25T09:16:08.260Z,100812.94
2023-02-25T09:18:35.723Z,100807.09
2023-02-25T09:21:11.564Z,100808.72
2023-02-25T09:23:38.474Z,100815.78
2023-02-25T09:26:19.384Z,100798.06
2023-02-25T09:28:47.578Z,100814.84
2023-02-25T09:31:25.165Z,100824.31
2023-02-25T09:33:52.455Z,100820.31
2023-02-25T09:36:29.217Z,100837.78
2023-02-25T09:38:57.716Z,100821.34
2023-02-25T09:41:37.322Z,100831.88
2023-02-25T09:44:14.498Z,100826.88
2023-02-25T09:46:56.255Z,100826.25
2023-02-25T09:50:14.225Z,100846.38
2023-02-25T09:52:55.193Z,100846.16
2023-02-25T09:55:36.477Z,100840.84
2023-02-25T09:58:24.179Z,100845.81
2023-02-25T10:01:01.818Z,100845.41
2023-02-25T10:04:03.403Z,100867.34
2023-02-25T10:06:42.479Z,100861.50
2023-02-25T10:09:35.234Z,100878.97
2023-02-25T10:12:13.374Z,100885.53
2023-02-25T10:14:55.306Z,100896.00
2023-02-25T10:17:24.860Z,100893.44
2023-02-25T10:20:25.446Z,100882.94
2023-02-25T10:23:36.918Z,100893.84
2023-02-25T10:26:40.586Z,100897.91
2023-02-25T10:29:15.646Z,100904.09
2023-02-25T10:31:52.459Z,100902.75
2023-02-25T10:34:26.377Z,100910.16
2023-02-25T10:37:05.292Z,100929.28
2023-02-25T10:39:32.363Z,100915.81
2023-02-25T10:42:05.258Z,100925.13
2023-02-25T10:44:38.246Z,100912.19
2023-02-25T10:47:13.265Z,100931.41
2023-02-25T10:50:45.011Z,100918.53
2023-02-25T10:53:24.232Z,100931.19
2023-02-25T10:56:09.849Z,100932.09
2023-02-25T10:59:12.343Z,100950.00
2023-02-25T11:01:48.255Z,100938.63
2023-02-25T11:04:27.297Z,100941.44
2023-02-25T11:06:54.090Z,100946.78
2023-02-25T11:09:27.337Z,100964.72
2023-02-25T11:12:03.394Z,100931.75
2023-02-25T11:14:38.308Z,100941.81
2023-02-25T11:17:12.964Z,100951.81
2023-02-25T11:20:07.465Z,100965.94
2023-02-25T11:22:43.469Z,100961.19
2023-02-25T11:25:24.409Z,100964.78
2023-02-25T11:27:58.784Z,100976.34
2023-02-25T11:30:43.757Z,100960.97
2023-02-25T11:33:33.374Z,100951.63
2023-02-25T11:36:14.331Z,100949.81
2023-02-25T11:38:49.250Z,100962.59
2023-02-25T11:41:22.118Z,100968.78
2023-02-25T11:43:56.351Z,100974.78
2023-02-25T11:46:37.361Z,100966.72
2023-02-25T11:49:22.291Z,100977.16
2023-02-25T11:52:25.257Z,100990.16
2023-02-25T11:55:09.013Z,100985.28
2023-02-25T11:58:16.238Z,100982.25
2023-02-25T12:00:53.325Z,100971.75
2023-02-25T12:03:41.330Z,100987.28
2023-02-25T12:06:41.170Z,101000.16
2023-02-25T12:09:30.312Z,100985.38
2023-02-25T12:12:18.211Z,100993.00
2023-02-25T12:15:06.489Z,100991.56
2023-02-25T12:18:25.356Z,100996.91
2023-02-25T12:21:22.575Z,101003.69
2023-02-25T12:24:14.815Z,100986.22
2023-02-25T12:27:25.327Z,100994.78
2023-02-25T12:30:03.651Z,100985.25
2023-02-25T12:32:42.366Z,100994.69
2023-02-25T12:35:41.433Z,101007.56
2023-02-25T12:38:24.359Z,100995.03
2023-02-25T12:41:16.886Z,101026.59
2023-02-25T12:43:59.361Z,101028.25
2023-02-25T12:46:47.673Z,101038.84
2023-02-25T12:49:42.555Z,101036.81
2023-02-25T12:52:26.705Z,101041.56
2023-02-25T12:55:21.626Z,101037.47
2023-02-25T12:58:36.339Z,101043.31
2023-02-25T13:01:48.352Z,101052.91
2023-02-25T13:04:40.303Z,101051.81
2023-02-25T13:07:22.888Z,101042.94
2023-02-25T13:10:15.490Z,101028.38
2023-02-25T13:13:00.747Z,101037.69
2023-02-25T13:16:05.339Z,101042.44
2023-02-25T13:19:07.093Z,101047.94
2023-02-25T13:22:16.319Z,101045.16
2023-02-25T13:25:21.644Z,101048.22
2023-02-25T13:28:05.104Z,101051.22
2023-02-25T13:30:56.271Z,101060.69
2023-02-25T13:34:03.319Z,101077.41
2023-02-25T13:37:11.502Z,101072.38
2023-02-25T13:40:01.420Z,101065.97
2023-02-25T13:43:19.719Z,101056.88
2023-02-25T13:45:56.387Z,101038.00
2023-02-25T13:49:04.362Z,101082.38
2023-02-25T13:52:21.278Z,101062.41
2023-02-25T13:55:06.353Z,101069.44
2023-02-25T13:58:10.701Z,101064.38
2023-02-25T14:01:16.430Z,101055.59
2023-02-25T14:04:06.504Z,101068.69
2023-02-25T14:07:17.874Z,101081.91
2023-02-25T14:09:50.804Z,101095.53
2023-02-25T14:12:38.406Z,101101.56
2023-02-25T14:15:41.318Z,101113.56
2023-02-25T14:18:36.398Z,101100.41
2023-02-25T14:21:42.354Z,101109.53
2023-02-25T14:24:31.569Z,101102.03
2023-02-25T14:27:35.352Z,101117.97
2023-02-25T14:30:18.317Z,101126.09
2023-02-25T14:33:29.392Z,101133.50
2023-02-25T14:36:28.922Z,101145.34
2023-02-25T14:39:44.345Z,101146.50
2023-02-25T14:42:36.383Z,101133.78
2023-02-25T14:45:12.398Z,101133.16
2023-02-25T14:48:01.429Z,101133.72
2023-02-25T14:50:46.640Z,101139.09
2023-02-25T14:53:45.444Z,101141.00
2023-02-25T14:56:51.332Z,101150.78
2023-02-25T14:59:59.417Z,101151.16
2023-02-25T15:03:23.346Z,101160.41
2023-02-25T15:06:23.126Z,101170.56
2023-02-25T15:08:56.378Z,101170.50
2023-02-25T15:12:13.359Z,101169.28
2023-02-25T15:15:05.431Z,101177.53
2023-02-25T15:18:10.197Z,101185.53
2023-02-25T15:20:48.439Z,101182.72
2023-02-25T15:23:17.019Z,101185.91
2023-02-25T15:25:50.446Z,101180.53
2023-02-25T15:28:29.268Z,101195.56
2023-02-25T15:31:05.443Z,101189.28
2023-02-25T15:33:42.163Z,101199.63
2023-02-25T15:36:22.012Z,101198.28
2023-02-25T15:38:54.391Z,101200.94
2023-02-25T15:41:34.383Z,101212.47
2023-02-25T15:44:19.407Z,101221.72
2023-02-25T15:47:25.435Z,101228.91
2023-02-25T15:49:59.205Z,101228.09
2023-02-25T15:53:09.402Z,101235.34
2023-02-25T15:55:39.434Z,101238.78
2023-02-25T15:58:32.484Z,101238.56
2023-02-25T16:01:05.970Z,101239.72
2023-02-25T16:03:43.344Z,101235.28
2023-02-25T16:06:45.414Z,101247.97
2023-02-25T16:09:24.508Z,101236.22
2023-02-25T16:11:57.153Z,101267.56
2023-02-25T16:14:40.508Z,101243.88
2023-02-25T16:17:26.427Z,101250.22
2023-02-25T16:20:05.423Z,101282.66
2023-02-25T16:22:32.330Z,101283.19
2023-02-25T16:25:08.573Z,101279.31
2023-02-25T16:28:18.382Z,101295.13
2023-02-25T16:31:18.420Z,101285.03
2023-02-25T16:34:00.390Z,101295.97
2023-02-25T16:36:43.390Z,101299.59
2023-02-25T16:39:20.001Z,101306.00
2023-02-25T16:41:54.428Z,101311.63
2023-02-25T16:44:33.996Z,101315.53
2023-02-25T16:47:09.626Z,101320.28
2023-02-25T16:49:49.362Z,101322.47
2023-02-25T16:52:39.426Z,101322.78
2023-02-25T16:55:19.633Z,101327.41
2023-02-25T16:58:14.837Z,101335.53
2023-02-25T17:01:21.912Z,101337.59
2023-02-25T17:03:55.486Z,101322.66
2023-02-25T17:06:23.416Z,101341.97
2023-02-25T17:09:13.403Z,101350.19
2023-02-25T17:11:56.916Z,101345.25
2023-02-25T17:14:31.689Z,101334.44
2023-02-25T17:16:59.574Z,101351.69
2023-02-25T17:19:33.417Z,101334.69
2023-02-25T17:22:00.267Z,101352.06
2023-02-25T17:24:37.461Z,101340.44
2023-02-25T17:27:13.008Z,101363.19
2023-02-25T17:29:46.498Z,101363.50
2023-02-25T17:32:24.647Z,101370.66
2023-02-25T17:35:02.424Z,101379.66
2023-02-25T17:37:37.438Z,101369.50
2023-02-25T17:40:08.380Z,101377.00
2023-02-25T17:42:48.467Z,101357.44
2023-02-25T17:45:41.319Z,101387.41
2023-02-25T17:48:30.422Z,101387.97
2023-02-25T17:51:10.744Z,101386.47
2023-02-25T17:54:02.441Z,101394.72
2023-02-25T17:56:38.487Z,101392.44
2023-02-25T17:59:34.481Z,101403.22
2023-02-25T18:02:24.164Z,101389.59
2023-02-25T18:05:02.492Z,101389.69
2023-02-25T18:07:39.640Z,101408.03
2023-02-25T18:10:29.489Z,101409.69
2023-02-25T18:12:56.639Z,101412.22
2023-02-25T18:15:33.454Z,101417.25
2023-02-25T18:18:03.652Z,101438.78
2023-02-25T18:20:43.453Z,101431.56
2023-02-25T18:23:24.628Z,101423.59
2023-02-25T18:26:26.626Z,101433.19
2023-02-25T18:28:55.536Z,101426.75
2023-02-25T18:31:29.702Z,101440.13
2023-02-25T18:33:56.453Z,101436.81
2023-02-25T18:36:32.493Z,101425.63
2023-02-25T18:39:04.032Z,101435.81
2023-02-25T18:41:38.177Z,101435.81
2023-02-25T18:44:13.249Z,101436.69
2023-02-25T18:46:53.348Z,101434.94
2023-02-25T18:49:20.180Z,101434.25
2023-02-25T18:52:12.545Z,101439.56
2023-02-25T18:54:41.115Z,101440.44
2023-02-25T18:57:25.089Z,101447.63
2023-02-25T18:59:53.048Z,101444.31
2023-02-25T19:02:37.969Z,101458.41
2023-02-25T19:05:07.340Z,101448.16
2023-02-25T19:07:47.829Z,101444.91
2023-02-25T19:10:24.433Z,101444.19
2023-02-25T19:13:00.435Z,101440.06
2023-02-25T19:15:33.997Z,101466.19
2023-02-25T19:18:01.045Z,101453.41
2023-02-25T19:20:34.644Z,101446.63
2023-02-25T19:23:11.224Z,101458.88
2023-02-25T19:25:42.661Z,101446.91
2023-02-25T19:28:16.666Z,101450.38
2023-02-25T19:30:44.161Z,101470.22
2023-02-25T19:33:18.630Z,101459.88
2023-02-25T19:35:45.398Z,101467.78
2023-02-25T19:38:16.481Z,101466.06
2023-02-25T19:40:54.743Z,101478.34
2023-02-25T19:43:28.869Z,101484.41
2023-02-25T19:45:55.809Z,101486.22
2023-02-25T19:48:29.608Z,101480.19
2023-02-25T19:51:02.486Z,101489.72
2023-02-25T19:53:36.830Z,101504.31
2023-02-25T19:56:10.908Z,101504.31
2023-02-25T19:58:44.714Z,101513.88
2023-02-25T20:01:12.334Z,101496.72
2023-02-25T20:03:39.335Z,101518.53
2023-02-25T20:06:17.541Z,101489.34
2023-02-25T20:08:46.080Z,101508.53
2023-02-25T20:11:12.944Z,101528.56
2023-02-25T20:13:46.795Z,101533.06
2023-02-25T20:16:20.583Z,101531.41
2023-02-25T20:18:51.070Z,101529.78
2023-02-25T20:21:28.583Z,101537.69
2023-02-25T20:24:04.687Z,101562.59
2023-02-25T20:26:33.786Z,101559.53
2023-02-25T20:29:07.519Z,101542.38
2023-02-25T20:31:35.246Z,101536.91
2023-02-25T20:34:08.609Z,101544.78
2023-02-25T20:36:45.512Z,101533.72
2023-02-25T20:39:37.649Z,101541.69
2023-02-25T20:42:20.030Z,101543.59
2023-02-25T20:44:58.584Z,101538.63
2023-02-25T20:47:26.735Z,101539.78
2023-02-25T20:50:01.570Z,101550.38
2023-02-25T20:52:50.378Z,101561.72
2023-02-25T20:55:23.633Z,101561.06
2023-02-25T20:57:52.229Z,101557.72
2023-02-25T21:00:20.872Z,101558.59
2023-02-25T21:02:59.545Z,101570.75
2023-02-25T21:05:33.556Z,101573.41
2023-02-25T21:08:00.282Z,101558.84
2023-02-25T21:10:27.186Z,101584.81
2023-02-25T21:13:00.686Z,101583.91
2023-02-25T21:15:27.816Z,101588.38
2023-02-25T21:18:01.573Z,101574.59
2023-02-25T21:20:28.688Z,101583.16
2023-02-25T21:23:01.790Z,101585.84
2023-02-25T21:25:31.091Z,101589.19
2023-02-25T21:28:05.586Z,101584.06
2023-02-25T21:30:32.801Z,101599.69
2023-02-25T21:32:59.867Z,101606.63
2023-02-25T21:35:33.790Z,101590.22
2023-02-25T21:38:00.932Z,101604.84
2023-02-25T21:40:35.220Z,101612.69
2023-02-25T21:43:02.266Z,101617.91
2023-02-25T21:45:36.037Z,101617.84
2023-02-25T21:48:02.850Z,101621.25
2023-02-25T21:50:36.624Z,101635.25
2023-02-25T21:53:10.366Z,101633.34
2023-02-25T21:55:43.587Z,101628.97
2023-02-25T21:58:11.762Z,101645.28
2023-02-25T22:00:45.787Z,101622.41
2023-02-25T22:03:12.535Z,101607.44
2023-02-25T22:05:52.115Z,101601.28
2023-02-25T22:08:18.915Z,101599.56
2023-02-25T22:10:53.652Z,101595.16
2023-02-25T22:13:26.635Z,101610.81
2023-02-25T22:16:01.129Z,101591.81
2023-02-25T22:18:34.762Z,101607.44
2023-02-25T22:21:20.447Z,101610.19
2023-02-25T22:23:55.602Z,101586.38
2023-02-25T22:26:32.590Z,101622.84
2023-02-25T22:29:08.593Z,101608.53
2023-02-25T22:31:35.695Z,101616.44
2023-02-25T22:34:10.751Z,101624.50
2023-02-25T22:36:37.743Z,101629.13
2023-02-25T22:39:13.662Z,101621.47
2023-02-25T22:41:40.805Z,101625.94
2023-02-25T22:44:14.579Z,101636.28
2023-02-25T22:46:41.819Z,101623.38
2023-02-25T22:49:18.503Z,101638.91
2023-02-25T22:51:54.579Z,101637.22
2023-02-25T22:54:34.721Z,101634.47
2023-02-25T22:57:01.685Z,101644.94
2023-02-25T22:59:35.651Z,101636.28
2023-02-25T23:02:02.916Z,101631.06
2023-02-25T23:04:36.682Z,101643.97
2023-02-25T23:07:03.456Z,101643.06
2023-02-25T23:09:30.876Z,101644.72
2023-02-25T23:12:05.423Z,101654.28
2023-02-25T23:14:34.500Z,101653.50
2023-02-25T23:17:09.109Z,101671.59
2023-02-25T23:19:36.072Z,101674.22
2023-02-25T23:22:16.654Z,101680.13
2023-02-25T23:24:43.409Z,101683.50
2023-02-25T23:27:16.687Z,101686.22
2023-02-25T23:29:43.305Z,101693.16
2023-02-25T23:32:18.040Z,101689.84
2023-02-25T23:34:44.778Z,101697.66
2023-02-25T23:37:20.781Z,101702.03
2023-02-25T23:39:47.785Z,101699.56
2023-02-25T23:42:22.625Z,101698.59
2023-02-25T23:44:49.329Z,101696.19
2023-02-25T23:47:24.642Z,101694.69
2023-02-25T23:49:51.264Z,101697.44
2023-02-25T23:52:31.670Z,101722.53
2023-02-25T23:55:06.952Z,101709.72
2023-02-25T23:57:40.645Z,101727.94
